createdAt,value
2018-12-01T00:02:12.517Z,10.23
2018-12-01T00:05:01.216Z,19.07
2018-12-01T00:07:34.222Z,16.90
2018-12-01T00:10:07.046Z,11.97
2018-12-01T00:12:39.130Z,14.90
2018-12-01T00:15:33.423Z,15.33
2018-12-01T00:18:06.724Z,11.73
2018-12-01T00:20:40.101Z,13.80
2018-12-01T00:23:12.233Z,16.17
2018-12-01T00:25:44.331Z,12.37
2018-12-01T00:28:16.566Z,14.87
2018-12-01T00:30:48.641Z,18.00
2018-12-01T00:33:20.777Z,15.20
2018-12-01T00:35:52.774Z,16.27
2018-12-01T00:38:24.832Z,18.20
2018-12-01T00:40:56.921Z,16.33
2018-12-01T00:43:29.014Z,15.67
2018-12-01T00:46:01.108Z,15.90
2018-12-01T00:48:33.213Z,17.27
2018-12-01T00:51:06.417Z,16.60
2018-12-01T00:53:38.468Z,15.07
2018-12-01T00:56:10.543Z,13.97
2018-12-01T00:58:42.652Z,14.97
2018-12-01T01:01:14.727Z,17.67
2018-12-01T01:03:46.884Z,18.33
2018-12-01T01:06:19.072Z,19.10
2018-12-01T01:08:51.172Z,19.20
2018-12-01T01:11:23.178Z,24.40
2018-12-01T01:13:55.403Z,15.30
2018-12-01T01:16:27.488Z,21.57
2018-12-01T01:18:59.644Z,21.20
2018-12-01T01:21:31.753Z,16.93
2018-12-01T01:24:04.856Z,20.27
2018-12-01T01:26:36.813Z,18.07
2018-12-01T01:29:08.966Z,17.33
2018-12-01T01:31:41.030Z,18.67
2018-12-01T01:34:13.124Z,26.67
2018-12-01T01:36:45.218Z,22.03
2018-12-01T01:39:28.791Z,19.03
2018-12-01T01:42:00.842Z,24.97
2018-12-01T01:44:32.967Z,25.60
2018-12-01T01:47:04.994Z,25.53
2018-12-01T01:49:37.087Z,29.43
2018-12-01T01:52:09.140Z,23.57
2018-12-01T01:54:41.305Z,24.23
2018-12-01T01:57:13.365Z,22.70
2018-12-01T01:59:45.473Z,19.90
2018-12-01T02:02:17.818Z,22.47
2018-12-01T02:04:49.912Z,21.53
2018-12-01T02:07:22.008Z,24.10
2018-12-01T02:09:54.122Z,25.23
2018-12-01T02:12:26.182Z,19.07
2018-12-01T02:14:58.297Z,23.80
2018-12-01T02:17:30.615Z,20.10
2018-12-01T02:20:02.689Z,21.13
2018-12-01T02:22:34.852Z,19.67
2018-12-01T02:25:07.637Z,19.13
2018-12-01T02:27:39.734Z,19.17
2018-12-01T02:30:16.063Z,17.60
2018-12-01T02:32:48.411Z,25.67
2018-12-01T02:35:22.507Z,18.07
2018-12-01T02:37:55.090Z,25.73
2018-12-01T02:40:27.179Z,18.70
2018-12-01T02:42:59.246Z,17.03
2018-12-01T02:46:24.755Z,25.70
2018-12-01T02:48:56.798Z,17.63
2018-12-01T02:51:28.818Z,16.93
2018-12-01T02:54:00.875Z,26.17
2018-12-01T02:56:32.956Z,18.87
2018-12-01T02:59:05.081Z,23.73
2018-12-01T03:01:37.211Z,20.93
2018-12-01T03:04:09.289Z,16.87
2018-12-01T03:06:41.392Z,21.23
2018-12-01T03:09:13.446Z,19.57
2018-12-01T03:11:45.572Z,16.53
2018-12-01T03:14:17.588Z,20.27
2018-12-01T03:16:49.673Z,16.70
2018-12-01T03:19:21.720Z,17.80
2018-12-01T03:21:53.828Z,16.20
2018-12-01T03:24:25.939Z,17.70
2018-12-01T03:26:58.018Z,16.50
2018-12-01T03:29:30.107Z,16.63
2018-12-01T03:32:02.223Z,15.87
2018-12-01T03:34:35.185Z,16.77
2018-12-01T03:37:07.274Z,17.67
2018-12-01T03:39:39.265Z,15.87
2018-12-01T03:42:11.362Z,18.23
2018-12-01T03:44:43.361Z,16.60
2018-12-01T03:47:15.465Z,15.03
2018-12-01T03:49:47.527Z,18.80
2018-12-01T03:52:19.629Z,19.90
2018-12-01T03:54:51.711Z,23.07
2018-12-01T03:57:23.777Z,18.40
2018-12-01T03:59:55.832Z,18.47
2018-12-01T04:02:27.931Z,18.17
2018-12-01T04:04:59.999Z,16.63
2018-12-01T04:07:32.093Z,21.80
2018-12-01T04:10:04.213Z,16.17
2018-12-01T04:12:36.272Z,17.80
2018-12-01T04:15:08.441Z,18.27
2018-12-01T04:17:40.549Z,16.10
2018-12-01T04:20:12.606Z,17.27
2018-12-01T04:22:44.725Z,19.53
2018-12-01T04:25:16.823Z,21.23
2018-12-01T04:27:49.120Z,24.27
2018-12-01T04:30:26.442Z,18.50
2018-12-01T04:32:58.522Z,17.97
2018-12-01T04:35:31.578Z,15.37
2018-12-01T04:38:03.690Z,17.13
2018-12-01T04:40:35.735Z,16.73
2018-12-01T04:43:07.925Z,18.13
2018-12-01T04:45:39.988Z,15.67
2018-12-01T04:48:11.985Z,18.80
2018-12-01T04:50:44.029Z,19.03
2018-12-01T04:53:16.319Z,19.67
2018-12-01T04:55:48.535Z,18.63
2018-12-01T04:58:20.648Z,27.10
2018-12-01T05:00:52.759Z,22.70
2018-12-01T05:03:24.837Z,23.10
2018-12-01T05:05:57.715Z,21.13
2018-12-01T05:08:29.881Z,18.97
2018-12-01T05:11:01.948Z,22.27
2018-12-01T05:13:33.939Z,26.47
2018-12-01T05:16:06.260Z,18.30
2018-12-01T05:18:38.365Z,17.23
2018-12-01T05:21:10.445Z,22.13
2018-12-01T05:23:42.564Z,22.47
2018-12-01T05:26:14.653Z,16.57
2018-12-01T05:28:48.724Z,16.97
2018-12-01T05:31:20.767Z,23.13
2018-12-01T05:33:53.715Z,18.50
2018-12-01T05:36:25.722Z,24.50
2018-12-01T05:38:57.824Z,19.77
2018-12-01T05:41:29.988Z,25.87
2018-12-01T05:44:02.087Z,21.43
2018-12-01T05:46:34.190Z,20.17
2018-12-01T05:49:06.518Z,17.13
2018-12-01T05:51:38.572Z,21.27
2018-12-01T05:54:10.692Z,18.70
2018-12-01T05:56:42.774Z,18.63
2018-12-01T05:59:14.902Z,17.03
2018-12-01T06:01:46.930Z,25.30
2018-12-01T06:04:19.412Z,17.13
2018-12-01T06:06:51.482Z,15.50
2018-12-01T06:09:23.558Z,17.87
2018-12-01T06:11:55.518Z,17.10
2018-12-01T06:14:27.508Z,23.37
2018-12-01T06:16:59.592Z,25.10
2018-12-01T06:19:31.718Z,19.30
2018-12-01T06:22:03.831Z,19.77
2018-12-01T06:24:35.920Z,19.83
2018-12-01T06:27:08.026Z,20.23
2018-12-01T06:29:40.117Z,17.70
2018-12-01T06:32:12.070Z,19.83
2018-12-01T06:34:44.749Z,18.13
2018-12-01T06:37:16.790Z,20.57
2018-12-01T06:39:48.799Z,22.40
2018-12-01T06:42:20.950Z,24.97
2018-12-01T06:44:53.015Z,17.07
2018-12-01T06:47:25.188Z,20.63
2018-12-01T06:49:57.281Z,17.00
2018-12-01T06:52:29.418Z,21.10
2018-12-01T06:55:01.553Z,20.93
2018-12-01T06:57:33.594Z,20.00
2018-12-01T07:00:07.645Z,17.33
2018-12-01T07:02:39.992Z,16.53
2018-12-01T07:05:13.646Z,29.93
2018-12-01T07:07:45.692Z,19.57
2018-12-01T07:10:19.268Z,23.77
2018-12-01T07:13:02.982Z,20.50
2018-12-01T07:15:39.687Z,18.80
2018-12-01T07:19:05.336Z,20.20
2018-12-01T07:21:37.394Z,27.23
2018-12-01T07:24:09.448Z,21.07
2018-12-01T07:26:41.740Z,20.33
2018-12-01T07:29:16.504Z,18.53
2018-12-01T07:31:48.557Z,18.53
2018-12-01T07:34:20.665Z,21.63
2018-12-01T07:36:52.836Z,21.00
2018-12-01T07:39:24.952Z,30.13
2018-12-01T07:41:57.019Z,18.07
2018-12-01T07:44:29.141Z,17.40
2018-12-01T07:47:01.340Z,23.53
2018-12-01T07:49:33.406Z,18.13
2018-12-01T07:52:05.535Z,22.27
2018-12-01T07:54:37.642Z,22.77
2018-12-01T07:57:09.687Z,32.50
2018-12-01T07:59:41.754Z,26.20
2018-12-01T08:02:13.844Z,23.50
2018-12-01T08:04:45.977Z,32.87
2018-12-01T08:07:18.067Z,27.67
2018-12-01T08:09:50.560Z,31.13
2018-12-01T08:12:23.024Z,28.23
2018-12-01T08:14:55.005Z,25.27
2018-12-01T08:17:27.102Z,23.10
2018-12-01T08:19:59.339Z,25.70
2018-12-01T08:22:31.431Z,33.97
2018-12-01T08:25:03.604Z,30.20
2018-12-01T08:27:35.779Z,30.50
2018-12-01T08:30:20.428Z,29.13
2018-12-01T08:32:52.528Z,25.90
2018-12-01T08:35:25.359Z,33.63
2018-12-01T08:37:57.473Z,23.37
2018-12-01T08:40:34.005Z,22.93
2018-12-01T08:43:06.385Z,23.20
2018-12-01T08:45:38.474Z,30.67
2018-12-01T08:48:11.248Z,22.83
2018-12-01T08:50:43.271Z,17.87
2018-12-01T08:53:15.398Z,15.93
2018-12-01T08:55:47.619Z,18.87
2018-12-01T08:58:19.806Z,22.37
2018-12-01T09:00:51.936Z,18.00
2018-12-01T09:03:25.246Z,17.87
2018-12-01T09:05:57.323Z,17.33
2018-12-01T09:08:31.948Z,22.13
2018-12-01T09:11:04.121Z,22.57
2018-12-01T09:13:36.179Z,23.77
2018-12-01T09:16:09.057Z,17.57
2018-12-01T09:18:41.198Z,14.80
2018-12-01T09:21:13.317Z,15.40
2018-12-01T09:23:45.460Z,13.50
2018-12-01T09:26:17.508Z,12.73
2018-12-01T09:28:49.649Z,8.70
2018-12-01T09:31:21.763Z,8.33
2018-12-01T09:33:53.853Z,8.37
2018-12-01T09:36:25.839Z,10.67
2018-12-01T09:38:57.930Z,9.67
2018-12-01T09:41:30.013Z,8.33
2018-12-01T09:44:02.144Z,8.10
2018-12-01T09:46:34.182Z,7.90
2018-12-01T09:49:06.258Z,6.90
2018-12-01T09:51:38.463Z,6.47
2018-12-01T09:54:10.597Z,5.80
2018-12-01T09:56:42.799Z,6.93
2018-12-01T09:59:15.025Z,7.43
2018-12-01T10:01:47.071Z,5.83
2018-12-01T10:04:19.162Z,7.23
2018-12-01T10:06:51.245Z,5.27
2018-12-01T10:09:23.358Z,5.57
2018-12-01T10:11:55.434Z,6.63
2018-12-01T10:14:27.636Z,5.30
2018-12-01T10:17:00.235Z,4.43
2018-12-01T10:19:32.312Z,5.53
2018-12-01T10:22:05.117Z,6.87
2018-12-01T10:24:37.177Z,5.77
2018-12-01T10:27:09.227Z,5.13
2018-12-01T10:29:41.345Z,5.47
2018-12-01T10:32:13.463Z,5.63
2018-12-01T10:34:45.558Z,8.80
2018-12-01T10:37:17.623Z,5.70
2018-12-01T10:39:49.739Z,4.57
2018-12-01T10:42:21.796Z,6.30
2018-12-01T10:44:53.914Z,5.80
2018-12-01T10:47:25.920Z,75.73
2018-12-01T10:49:58.122Z,8.23
2018-12-01T10:52:30.189Z,6.10
2018-12-01T10:55:02.408Z,5.47
2018-12-01T10:57:34.531Z,4.73
2018-12-01T11:00:30.483Z,6.27
2018-12-01T11:03:20.182Z,7.80
2018-12-01T11:05:52.552Z,4.10
2018-12-01T11:08:24.625Z,6.90
2018-12-01T11:10:57.031Z,7.47
2018-12-01T11:13:29.262Z,3.47
2018-12-01T11:16:01.380Z,5.73
2018-12-01T11:18:33.512Z,5.20
2018-12-01T11:21:05.849Z,3.37
2018-12-01T11:23:37.968Z,6.77
2018-12-01T11:26:10.082Z,4.80
2018-12-01T11:28:42.257Z,67.73
2018-12-01T11:31:14.330Z,8.43
2018-12-01T11:33:46.450Z,6.43
2018-12-01T11:36:19.116Z,2.70
2018-12-01T11:38:51.473Z,5.23
2018-12-01T11:41:23.574Z,11.90
2018-12-01T11:43:55.740Z,5.77
2018-12-01T11:46:27.885Z,2.70
2018-12-01T11:48:59.986Z,4.33
2018-12-01T11:51:32.176Z,3.20
2018-12-01T11:54:04.537Z,3.40
2018-12-01T11:56:36.656Z,7.63
2018-12-01T11:59:08.898Z,2.53
2018-12-01T12:01:41.276Z,4.50
2018-12-01T12:04:13.240Z,6.70
2018-12-01T12:06:45.414Z,9.17
2018-12-01T12:09:17.579Z,2.80
2018-12-01T12:11:49.729Z,3.80
2018-12-01T12:14:21.818Z,6.60
2018-12-01T12:16:54.075Z,5.33
2018-12-01T12:19:26.169Z,3.47
2018-12-01T12:21:58.593Z,3.27
2018-12-01T12:24:30.689Z,4.43
2018-12-01T12:27:02.687Z,4.27
2018-12-01T12:29:35.075Z,6.60
2018-12-01T12:32:07.504Z,2.33
2018-12-01T12:34:39.586Z,4.00
2018-12-01T12:37:11.831Z,2.23
2018-12-01T12:39:43.885Z,5.83
2018-12-01T12:42:16.064Z,3.93
2018-12-01T12:44:48.163Z,3.83
2018-12-01T12:47:20.284Z,2.20
2018-12-01T12:49:52.367Z,4.00
2018-12-01T12:52:24.565Z,4.77
2018-12-01T12:54:56.647Z,2.40
2018-12-01T12:57:28.744Z,3.23
2018-12-01T13:00:00.992Z,5.63
2018-12-01T13:02:33.208Z,2.87
2018-12-01T13:05:05.956Z,2.80
2018-12-01T13:07:38.001Z,2.40
2018-12-01T13:10:16.090Z,8.17
2018-12-01T13:12:48.182Z,5.73
2018-12-01T13:15:20.516Z,3.23
2018-12-01T13:17:54.067Z,4.73
2018-12-01T13:20:26.707Z,6.57
2018-12-01T13:23:03.216Z,2.80
2018-12-01T13:25:35.333Z,3.40
2018-12-01T13:28:32.561Z,3.57
2018-12-01T13:31:04.675Z,6.70
2018-12-01T13:33:36.789Z,9.30
2018-12-01T13:36:09.389Z,3.10
2018-12-01T13:38:41.573Z,5.47
2018-12-01T13:41:13.711Z,2.93
2018-12-01T13:43:45.825Z,3.97
2018-12-01T13:46:17.873Z,3.40
2018-12-01T13:48:50.024Z,6.87
2018-12-01T13:51:22.192Z,2.70
2018-12-01T13:53:54.301Z,5.07
2018-12-01T13:56:26.525Z,8.93
2018-12-01T13:58:58.672Z,13.40
2018-12-01T14:01:30.893Z,3.83
2018-12-01T14:04:03.079Z,3.80
2018-12-01T14:06:35.111Z,6.93
2018-12-01T14:09:09.503Z,4.67
2018-12-01T14:11:42.532Z,3.20
2018-12-01T14:14:14.599Z,7.53
2018-12-01T14:16:46.717Z,3.70
2018-12-01T14:19:18.798Z,4.77
2018-12-01T14:21:50.950Z,3.10
2018-12-01T14:24:23.070Z,5.50
2018-12-01T14:26:55.285Z,3.90
2018-12-01T14:29:27.402Z,7.33
2018-12-01T14:31:59.634Z,3.40
2018-12-01T14:34:31.910Z,3.33
2018-12-01T14:37:04.077Z,3.87
2018-12-01T14:39:36.220Z,4.07
2018-12-01T14:42:08.324Z,3.70
2018-12-01T14:44:40.466Z,5.93
2018-12-01T14:47:12.621Z,4.03
2018-12-01T14:49:44.713Z,3.63
2018-12-01T14:52:17.732Z,6.43
2018-12-01T14:54:49.819Z,7.27
2018-12-01T14:57:22.702Z,3.63
2018-12-01T14:59:55.050Z,5.00
2018-12-01T15:02:27.137Z,3.67
2018-12-01T15:04:59.237Z,6.43
2018-12-01T15:07:31.372Z,2.97
2018-12-01T15:10:03.464Z,3.87
2018-12-01T15:12:35.734Z,3.27
2018-12-01T15:15:10.249Z,7.73
2018-12-01T15:17:42.421Z,6.63
2018-12-01T15:20:19.139Z,5.90
2018-12-01T15:22:59.025Z,15.83
2018-12-01T15:25:31.856Z,8.10
2018-12-01T15:28:03.959Z,9.80
2018-12-01T15:30:36.153Z,8.60
2018-12-01T15:33:18.355Z,7.20
2018-12-01T15:35:53.546Z,14.60
2018-12-01T15:38:25.612Z,11.70
2018-12-01T15:40:57.786Z,11.47
2018-12-01T15:43:29.844Z,34.20
2018-12-01T15:46:03.333Z,53.77
2018-12-01T15:48:35.398Z,28.07
2018-12-01T15:51:07.498Z,15.27
2018-12-01T15:53:39.616Z,14.43
2018-12-01T15:56:11.768Z,19.80
2018-12-01T15:58:43.779Z,13.87
2018-12-01T16:01:16.053Z,14.30
2018-12-01T16:03:48.230Z,14.07
2018-12-01T16:06:20.990Z,11.03
2018-12-01T16:08:53.067Z,10.03
2018-12-01T16:11:25.180Z,8.03
2018-12-01T16:13:57.247Z,10.00
2018-12-01T16:16:29.356Z,11.17
2018-12-01T16:19:01.991Z,15.20
2018-12-01T16:21:34.252Z,12.27
2018-12-01T16:24:06.583Z,14.03
2018-12-01T16:26:38.663Z,9.57
2018-12-01T16:29:10.653Z,6.70
2018-12-01T16:31:42.728Z,6.70
2018-12-01T16:34:14.796Z,12.70
2018-12-01T16:36:46.866Z,9.33
2018-12-01T16:39:18.979Z,10.53
2018-12-01T16:41:51.882Z,11.50
2018-12-01T16:44:23.969Z,11.23
2018-12-01T16:46:56.108Z,16.93
2018-12-01T16:49:28.255Z,12.20
2018-12-01T16:52:00.776Z,13.77
2018-12-01T16:54:32.848Z,19.67
2018-12-01T16:57:05.068Z,24.30
2018-12-01T16:59:37.202Z,27.10
2018-12-01T17:02:09.315Z,33.40
2018-12-01T17:04:41.484Z,31.60
2018-12-01T17:07:13.579Z,36.57
2018-12-01T17:09:45.663Z,32.17
2018-12-01T17:12:17.815Z,29.83
2018-12-01T17:14:49.899Z,33.13
2018-12-01T17:17:22.111Z,35.60
2018-12-01T17:19:54.194Z,32.40
2018-12-01T17:22:26.287Z,31.20
2018-12-01T17:24:58.379Z,45.73
2018-12-01T17:27:30.480Z,33.20
2018-12-01T17:30:02.563Z,38.23
2018-12-01T17:32:34.740Z,33.40
2018-12-01T17:35:09.066Z,48.20
2018-12-01T17:37:41.475Z,37.37
2018-12-01T17:41:01.659Z,43.00
2018-12-01T17:43:54.751Z,38.40
2018-12-01T17:46:27.742Z,52.03
2018-12-01T17:48:59.884Z,36.90
2018-12-01T17:51:32.157Z,36.10
2018-12-01T17:54:16.601Z,41.97
2018-12-01T17:56:49.078Z,37.00
2018-12-01T17:59:21.203Z,31.57
2018-12-01T18:01:53.324Z,36.70
2018-12-01T18:04:25.439Z,36.00
2018-12-01T18:06:57.537Z,39.67
2018-12-01T18:09:29.686Z,36.87
2018-12-01T18:12:02.339Z,37.53
2018-12-01T18:14:34.576Z,37.53
2018-12-01T18:17:07.054Z,35.87
2018-12-01T18:19:39.229Z,37.83
2018-12-01T18:22:11.343Z,38.00
2018-12-01T18:24:43.519Z,37.67
2018-12-01T18:27:15.581Z,38.40
2018-12-01T18:29:47.679Z,36.63
2018-12-01T18:32:19.866Z,36.60
2018-12-01T18:34:52.041Z,35.13
2018-12-01T18:37:24.323Z,34.10
2018-12-01T18:39:56.521Z,32.13
2018-12-01T18:42:28.606Z,38.73
2018-12-01T18:45:01.628Z,35.83
2018-12-01T18:47:33.815Z,37.20
2018-12-01T18:50:08.819Z,39.20
2018-12-01T18:52:41.087Z,36.83
2018-12-01T18:55:15.246Z,34.77
2018-12-01T18:57:47.387Z,31.60
2018-12-01T19:00:49.033Z,35.73
2018-12-01T19:03:23.250Z,44.77
2018-12-01T19:05:55.376Z,32.73
2018-12-01T19:08:27.482Z,35.87
2018-12-01T19:10:59.553Z,36.13
2018-12-01T19:13:31.581Z,37.47
2018-12-01T19:16:03.751Z,35.33
2018-12-01T19:18:35.928Z,45.13
2018-12-01T19:21:08.194Z,39.13
2018-12-01T19:23:40.288Z,51.30
2018-12-01T19:26:12.530Z,58.43
2018-12-01T19:28:44.689Z,45.90
2018-12-01T19:31:16.926Z,43.57
2018-12-01T19:33:49.032Z,33.47
2018-12-01T19:36:21.216Z,35.23
2018-12-01T19:38:53.327Z,34.23
2018-12-01T19:41:25.489Z,32.03
2018-12-01T19:43:58.040Z,34.37
2018-12-01T19:46:30.201Z,37.00
2018-12-01T19:49:02.312Z,42.70
2018-12-01T19:51:34.579Z,31.60
2018-12-01T19:54:07.251Z,30.00
2018-12-01T19:56:39.405Z,31.03
2018-12-01T19:59:11.686Z,32.87
2018-12-01T20:01:44.220Z,33.90
2018-12-01T20:04:16.330Z,37.87
2018-12-01T20:06:48.729Z,30.77
2018-12-01T20:09:20.907Z,38.30
2018-12-01T20:11:53.086Z,35.13
2018-12-01T20:14:25.266Z,32.73
2018-12-01T20:16:58.917Z,32.20
2018-12-01T20:19:31.953Z,35.20
2018-12-01T20:22:04.129Z,32.83
2018-12-01T20:24:36.721Z,32.67
2018-12-01T20:27:09.915Z,40.40
2018-12-01T20:29:42.041Z,43.17
2018-12-01T20:32:14.399Z,39.57
2018-12-01T20:34:46.547Z,33.40
2018-12-01T20:37:20.496Z,34.90
2018-12-01T20:39:52.743Z,42.93
2018-12-01T20:42:25.105Z,36.47
2018-12-01T20:44:57.125Z,39.13
2018-12-01T20:47:29.907Z,39.97
2018-12-01T20:50:02.547Z,38.00
2018-12-01T20:52:35.182Z,36.80
2018-12-01T20:55:18.615Z,27.90
2018-12-01T20:57:53.725Z,25.37
2018-12-01T21:00:27.307Z,23.93
2018-12-01T21:02:59.343Z,24.50
2018-12-01T21:05:31.378Z,21.50
2018-12-01T21:08:04.799Z,23.47
2018-12-01T21:10:39.689Z,21.97
2018-12-01T21:13:11.782Z,19.60
2018-12-01T21:15:43.891Z,24.23
2018-12-01T21:18:16.054Z,20.43
2018-12-01T21:20:48.673Z,19.30
2018-12-01T21:23:20.756Z,19.13
2018-12-01T21:25:52.923Z,22.07
2018-12-01T21:28:25.194Z,18.13
2018-12-01T21:30:57.511Z,20.43
2018-12-01T21:33:34.680Z,16.57
2018-12-01T21:36:07.434Z,17.47
2018-12-01T21:38:39.834Z,19.83
2018-12-01T21:41:12.015Z,20.47
2018-12-01T21:43:44.147Z,28.23
2018-12-01T21:46:17.155Z,37.70
2018-12-01T21:48:49.402Z,59.33
2018-12-01T21:51:22.059Z,55.60
2018-12-01T21:53:54.141Z,46.93
2018-12-01T21:56:26.309Z,42.73
2018-12-01T21:58:58.828Z,38.57
2018-12-01T22:01:31.178Z,35.50
2018-12-01T22:04:05.043Z,27.60
2018-12-01T22:06:37.903Z,24.57
2018-12-01T22:09:11.249Z,23.40
2018-12-01T22:11:43.407Z,19.70
2018-12-01T22:14:15.559Z,15.50
2018-12-01T22:16:47.664Z,19.13
2018-12-01T22:19:19.720Z,21.27
2018-12-01T22:21:51.821Z,22.33
2018-12-01T22:24:24.063Z,17.50
2018-12-01T22:26:56.016Z,16.50
2018-12-01T22:29:28.016Z,20.63
2018-12-01T22:32:00.077Z,14.97
2018-12-01T22:34:32.214Z,21.47
2018-12-01T22:37:04.285Z,17.47
2018-12-01T22:39:36.565Z,19.90
2018-12-01T22:42:08.921Z,23.80
2018-12-01T22:44:41.048Z,16.97
2018-12-01T22:47:13.677Z,16.90
2018-12-01T22:49:45.775Z,19.93
2018-12-01T22:52:17.824Z,11.43
2018-12-01T22:54:49.925Z,14.60
2018-12-01T22:57:22.014Z,13.97
2018-12-01T22:59:54.213Z,15.33
2018-12-01T23:02:27.836Z,14.87
2018-12-01T23:05:00.028Z,10.87
2018-12-01T23:07:32.097Z,15.73
2018-12-01T23:10:04.330Z,11.20
2018-12-01T23:12:36.688Z,9.57
2018-12-01T23:15:11.037Z,12.27
2018-12-01T23:17:47.477Z,13.57
2018-12-01T23:20:23.862Z,10.97
2018-12-01T23:22:55.931Z,11.37
2018-12-01T23:25:28.053Z,11.00
2018-12-01T23:28:00.102Z,12.10
2018-12-01T23:30:33.283Z,8.63
2018-12-01T23:33:29.120Z,7.40
2018-12-01T23:36:02.047Z,7.80
2018-12-01T23:38:34.189Z,8.90
2018-12-01T23:41:06.643Z,9.00
2018-12-01T23:43:43.325Z,9.27
2018-12-01T23:46:15.665Z,7.37
2018-12-01T23:48:47.713Z,8.27
2018-12-01T23:51:19.784Z,6.47
2018-12-01T23:53:51.875Z,6.83
2018-12-01T23:56:24.005Z,7.80
2018-12-01T23:58:56.164Z,5.00
